createdAt,value
2018-11-25T00:00:16.032Z,4.20
2018-11-25T00:02:44.180Z,4.20
2018-11-25T00:05:12.316Z,4.20
2018-11-25T00:07:40.457Z,4.20
2018-11-25T00:10:08.597Z,4.20
2018-11-25T00:12:36.784Z,4.30
2018-11-25T00:15:06.838Z,4.30
2018-11-25T00:17:34.996Z,4.30
2018-11-25T00:20:04.470Z,4.30
2018-11-25T00:22:32.670Z,4.30
2018-11-25T00:25:00.803Z,4.30
2018-11-25T00:27:28.933Z,4.30
2018-11-25T00:29:57.063Z,4.30
2018-11-25T00:32:25.207Z,4.30
2018-11-25T00:34:54.270Z,4.30
2018-11-25T00:37:22.375Z,4.30
2018-11-25T00:39:50.579Z,4.30
2018-11-25T00:42:18.690Z,4.30
2018-11-25T00:44:46.913Z,4.40
2018-11-25T00:47:15.421Z,4.40
2018-11-25T00:49:43.581Z,4.40
2018-11-25T00:52:11.716Z,4.30
2018-11-25T00:54:39.848Z,4.30
2018-11-25T00:57:08.009Z,4.30
2018-11-25T00:59:36.201Z,4.30
2018-11-25T01:02:04.588Z,4.30
2018-11-25T01:04:32.704Z,4.30
2018-11-25T01:07:00.858Z,4.30
2018-11-25T01:09:29.091Z,4.30
2018-11-25T01:11:57.238Z,4.30
2018-11-25T01:14:25.320Z,4.30
2018-11-25T01:16:53.432Z,4.30
2018-11-25T01:19:21.657Z,4.30
2018-11-25T01:21:49.807Z,4.30
2018-11-25T01:24:18.082Z,4.20
2018-11-25T01:26:46.210Z,4.20
2018-11-25T01:29:14.375Z,4.30
2018-11-25T01:31:42.588Z,4.30
2018-11-25T01:34:10.760Z,4.30
2018-11-25T01:36:38.864Z,4.30
2018-11-25T01:39:07.230Z,4.30
2018-11-25T01:41:35.393Z,4.30
2018-11-25T01:44:03.835Z,4.30
2018-11-25T01:46:32.037Z,4.30
2018-11-25T01:49:00.204Z,4.30
2018-11-25T01:51:28.321Z,4.30
2018-11-25T01:53:56.580Z,4.30
2018-11-25T01:56:24.685Z,4.30
2018-11-25T01:58:52.783Z,4.30
2018-11-25T02:01:20.917Z,4.30
2018-11-25T02:03:49.164Z,4.40
2018-11-25T02:06:17.267Z,4.40
2018-11-25T02:08:45.368Z,4.40
2018-11-25T02:11:13.522Z,4.40
2018-11-25T02:13:41.861Z,4.30
2018-11-25T02:16:10.029Z,4.30
2018-11-25T02:18:38.156Z,4.30
2018-11-25T02:21:06.375Z,4.40
2018-11-25T02:23:41.209Z,4.40
2018-11-25T02:26:09.690Z,4.40
2018-11-25T02:28:37.807Z,4.40
2018-11-25T02:31:05.974Z,4.40
2018-11-25T02:33:34.135Z,4.40
2018-11-25T02:36:02.280Z,4.40
2018-11-25T02:38:30.379Z,4.40
2018-11-25T02:40:58.614Z,4.30
2018-11-25T02:43:26.787Z,4.40
2018-11-25T02:45:54.939Z,4.40
2018-11-25T02:48:23.121Z,4.40
2018-11-25T02:50:51.284Z,4.40
2018-11-25T02:53:19.402Z,4.40
2018-11-25T02:55:47.620Z,4.40
2018-11-25T02:58:15.722Z,4.40
2018-11-25T03:00:43.863Z,4.40
2018-11-25T03:03:12.019Z,4.40
2018-11-25T03:05:40.308Z,4.40
2018-11-25T03:08:08.470Z,4.40
2018-11-25T03:10:36.602Z,4.30
2018-11-25T03:13:04.788Z,4.30
2018-11-25T03:15:32.966Z,4.30
2018-11-25T03:18:01.055Z,4.30
2018-11-25T03:20:29.210Z,4.30
2018-11-25T03:22:57.305Z,4.30
2018-11-25T03:25:25.518Z,4.30
2018-11-25T03:27:53.692Z,4.30
2018-11-25T03:30:22.260Z,4.20
2018-11-25T03:32:51.446Z,4.20
2018-11-25T03:35:19.649Z,4.10
2018-11-25T03:37:47.817Z,4.10
2018-11-25T03:40:16.863Z,4.00
2018-11-25T03:42:45.182Z,4.00
2018-11-25T03:45:18.250Z,4.00
2018-11-25T03:47:46.355Z,4.00
2018-11-25T03:50:15.043Z,4.10
2018-11-25T03:52:43.218Z,4.10
2018-11-25T03:55:12.405Z,4.00
2018-11-25T03:57:40.929Z,4.00
2018-11-25T04:00:11.518Z,4.00
2018-11-25T04:02:39.644Z,4.00
2018-11-25T04:05:09.391Z,4.00
2018-11-25T04:07:37.523Z,4.00
2018-11-25T04:10:10.705Z,3.90
2018-11-25T04:12:38.919Z,3.90
2018-11-25T04:15:15.021Z,3.90
2018-11-25T04:17:43.225Z,3.90
2018-11-25T04:20:13.097Z,3.90
2018-11-25T04:22:41.236Z,3.90
2018-11-25T04:25:10.212Z,3.90
2018-11-25T04:27:38.319Z,3.90
2018-11-25T04:30:13.500Z,3.90
2018-11-25T04:32:42.117Z,3.90
2018-11-25T04:35:11.244Z,3.90
2018-11-25T04:37:39.347Z,3.80
2018-11-25T04:40:10.646Z,3.80
2018-11-25T04:42:38.855Z,3.80
2018-11-25T04:45:11.318Z,3.80
2018-11-25T04:47:39.566Z,3.80
2018-11-25T04:50:23.282Z,3.80
2018-11-25T04:52:51.462Z,3.90
2018-11-25T04:55:19.671Z,3.90
2018-11-25T04:57:47.770Z,3.90
2018-11-25T05:00:15.876Z,3.90
2018-11-25T05:02:43.990Z,4.00
2018-11-25T05:05:13.213Z,4.00
2018-11-25T05:07:41.530Z,3.90
2018-11-25T05:10:11.773Z,4.00
2018-11-25T05:12:39.945Z,4.00
2018-11-25T05:15:12.682Z,4.00
2018-11-25T05:17:41.008Z,3.90
2018-11-25T05:20:10.139Z,3.90
2018-11-25T05:22:38.247Z,3.80
2018-11-25T05:25:15.341Z,3.90
2018-11-25T05:27:43.473Z,3.90
2018-11-25T05:30:13.516Z,3.80
2018-11-25T05:32:41.921Z,3.80
2018-11-25T05:35:11.247Z,3.80
2018-11-25T05:37:39.473Z,3.70
2018-11-25T05:40:09.951Z,3.70
2018-11-25T05:42:38.079Z,3.60
2018-11-25T05:45:08.290Z,3.60
2018-11-25T05:47:36.559Z,3.60
2018-11-25T05:50:05.985Z,3.60
2018-11-25T05:52:34.329Z,3.60
2018-11-25T05:55:02.523Z,3.70
2018-11-25T05:57:30.633Z,3.70
2018-11-25T05:59:58.797Z,3.70
2018-11-25T06:02:26.907Z,3.80
2018-11-25T06:04:55.050Z,3.80
2018-11-25T06:07:23.223Z,3.80
2018-11-25T06:09:51.335Z,3.80
2018-11-25T06:12:19.490Z,3.80
2018-11-25T06:14:47.650Z,3.80
2018-11-25T06:17:15.815Z,3.90
2018-11-25T06:19:43.974Z,3.90
2018-11-25T06:22:12.058Z,3.90
2018-11-25T06:24:40.180Z,3.90
2018-11-25T06:27:08.440Z,3.90
2018-11-25T06:29:36.741Z,4.00
2018-11-25T06:32:04.988Z,4.00
2018-11-25T06:34:33.103Z,4.00
2018-11-25T06:37:01.253Z,3.90
2018-11-25T06:39:29.504Z,3.90
2018-11-25T06:41:57.746Z,3.90
2018-11-25T06:44:25.872Z,3.90
2018-11-25T06:46:54.440Z,3.90
2018-11-25T06:49:22.542Z,4.00
2018-11-25T06:51:50.777Z,4.00
2018-11-25T06:54:18.865Z,4.00
2018-11-25T06:56:47.025Z,4.00
2018-11-25T06:59:15.118Z,3.90
2018-11-25T07:01:43.330Z,3.90
2018-11-25T07:04:11.523Z,3.90
2018-11-25T07:06:39.739Z,3.90
2018-11-25T07:09:09.908Z,3.90
2018-11-25T07:11:37.346Z,3.90
2018-11-25T07:14:05.533Z,3.90
2018-11-25T07:16:33.673Z,3.90
2018-11-25T07:19:01.804Z,3.90
2018-11-25T07:21:29.954Z,3.90
2018-11-25T07:23:58.143Z,4.00
2018-11-25T07:26:26.426Z,4.00
2018-11-25T07:28:54.596Z,4.00
2018-11-25T07:31:22.728Z,4.00
2018-11-25T07:33:51.281Z,4.00
2018-11-25T07:36:19.472Z,4.00
2018-11-25T07:38:47.728Z,3.90
2018-11-25T07:41:15.855Z,3.90
2018-11-25T07:43:43.979Z,3.90
2018-11-25T07:46:12.092Z,4.00
2018-11-25T07:48:40.320Z,3.90
2018-11-25T07:51:08.475Z,4.00
2018-11-25T07:53:36.711Z,4.00
2018-11-25T07:56:04.910Z,4.00
2018-11-25T07:58:33.115Z,4.10
2018-11-25T08:01:01.240Z,4.10
2018-11-25T08:03:29.375Z,4.10
2018-11-25T08:05:57.488Z,4.10
2018-11-25T08:08:25.627Z,4.10
2018-11-25T08:10:53.755Z,4.10
2018-11-25T08:13:21.911Z,4.10
2018-11-25T08:15:50.081Z,4.10
2018-11-25T08:18:18.214Z,4.10
2018-11-25T08:20:46.504Z,4.10
2018-11-25T08:23:15.676Z,4.10
2018-11-25T08:25:43.058Z,4.20
2018-11-25T08:28:11.278Z,4.10
2018-11-25T08:30:39.426Z,4.20
2018-11-25T08:33:07.558Z,4.10
2018-11-25T08:35:35.857Z,4.20
2018-11-25T08:38:04.254Z,4.10
2018-11-25T08:40:33.136Z,4.10
2018-11-25T08:43:01.305Z,4.10
2018-11-25T08:45:29.778Z,4.10
2018-11-25T08:47:57.965Z,4.20
2018-11-25T08:50:26.314Z,4.20
2018-11-25T08:52:54.584Z,4.30
2018-11-25T08:55:24.123Z,4.20
2018-11-25T08:57:52.910Z,4.20
2018-11-25T09:00:22.472Z,4.20
2018-11-25T09:02:51.760Z,4.20
2018-11-25T09:05:19.966Z,4.20
2018-11-25T09:07:48.185Z,4.20
2018-11-25T09:10:17.582Z,4.20
2018-11-25T09:12:55.314Z,4.20
2018-11-25T09:15:19.357Z,4.30
2018-11-25T09:17:47.530Z,4.30
2018-11-25T09:20:16.896Z,4.40
2018-11-25T09:22:45.069Z,4.50
2018-11-25T09:25:14.632Z,4.50
2018-11-25T09:27:42.865Z,4.50
2018-11-25T09:30:18.366Z,4.50
2018-11-25T09:32:46.610Z,4.40
2018-11-25T09:35:14.937Z,4.50
2018-11-25T09:37:43.103Z,4.50
2018-11-25T09:40:13.316Z,4.60
2018-11-25T09:42:41.618Z,4.60
2018-11-25T09:45:14.886Z,4.70
2018-11-25T09:47:43.367Z,4.70
2018-11-25T09:50:12.801Z,4.70
2018-11-25T09:52:41.002Z,4.70
2018-11-25T09:55:11.246Z,4.70
2018-11-25T09:57:39.875Z,4.80
2018-11-25T10:00:24.030Z,4.80
2018-11-25T10:02:52.179Z,4.70
2018-11-25T10:05:20.439Z,4.70
2018-11-25T10:07:48.643Z,4.70
2018-11-25T10:10:18.930Z,4.70
2018-11-25T10:12:47.033Z,4.70
2018-11-25T10:15:16.461Z,4.60
2018-11-25T10:17:44.542Z,4.60
2018-11-25T10:20:14.905Z,4.60
2018-11-25T10:22:43.105Z,4.60
2018-11-25T10:25:13.263Z,4.60
2018-11-25T10:27:41.573Z,4.60
2018-11-25T10:30:13.801Z,4.60
2018-11-25T10:32:42.501Z,4.60
2018-11-25T10:35:10.723Z,4.50
2018-11-25T10:37:38.810Z,4.50
2018-11-25T10:40:15.434Z,4.50
2018-11-25T10:42:43.566Z,4.50
2018-11-25T10:45:13.983Z,4.50
2018-11-25T10:47:48.770Z,4.50
2018-11-25T10:50:18.083Z,4.50
2018-11-25T10:52:46.466Z,4.50
2018-11-25T10:55:15.804Z,4.60
2018-11-25T10:57:45.078Z,4.50
2018-11-25T11:00:28.446Z,4.60
2018-11-25T11:02:56.554Z,4.60
2018-11-25T11:05:24.883Z,4.60
2018-11-25T11:07:53.339Z,4.60
2018-11-25T11:10:21.596Z,4.60
2018-11-25T11:12:49.772Z,4.60
2018-11-25T11:15:17.899Z,4.60
2018-11-25T11:17:46.011Z,4.60
2018-11-25T11:20:14.134Z,4.60
2018-11-25T11:22:42.290Z,4.70
2018-11-25T11:25:10.440Z,4.80
2018-11-25T11:27:38.743Z,4.80
2018-11-25T11:30:09.559Z,4.90
2018-11-25T11:32:40.188Z,4.90
2018-11-25T11:35:08.515Z,4.90
2018-11-25T11:37:36.944Z,4.90
2018-11-25T11:40:11.343Z,4.90
2018-11-25T11:42:39.546Z,4.90
2018-11-25T11:45:09.608Z,4.90
2018-11-25T11:47:37.823Z,4.80
2018-11-25T11:50:10.560Z,4.90
2018-11-25T11:52:38.942Z,4.80
2018-11-25T11:55:08.838Z,4.80
2018-11-25T11:57:37.051Z,4.90
2018-11-25T12:00:10.999Z,4.90
2018-11-25T12:02:39.136Z,4.90
2018-11-25T12:05:07.435Z,4.90
2018-11-25T12:07:35.583Z,5.00
2018-11-25T12:10:04.679Z,4.90
2018-11-25T12:12:32.918Z,4.90
2018-11-25T12:15:01.088Z,4.90
2018-11-25T12:17:29.485Z,5.00
2018-11-25T12:19:57.622Z,5.00
2018-11-25T12:22:25.896Z,5.10
2018-11-25T12:24:54.059Z,5.10
2018-11-25T12:27:22.320Z,5.10
2018-11-25T12:29:50.526Z,5.10
2018-11-25T12:32:18.662Z,5.10
2018-11-25T12:34:46.807Z,5.00
2018-11-25T12:37:14.944Z,5.00
2018-11-25T12:39:43.152Z,5.00
2018-11-25T12:42:11.280Z,5.00
2018-11-25T12:44:40.534Z,5.00
2018-11-25T12:47:08.694Z,5.00
2018-11-25T12:49:36.847Z,4.90
2018-11-25T12:52:05.134Z,4.90
2018-11-25T12:54:33.236Z,4.90
2018-11-25T12:57:01.451Z,4.90
2018-11-25T12:59:29.631Z,4.90
2018-11-25T13:01:57.865Z,4.90
2018-11-25T13:04:27.808Z,4.80
2018-11-25T13:06:54.300Z,4.90
2018-11-25T13:09:22.438Z,4.80
2018-11-25T13:11:52.416Z,4.80
2018-11-25T13:14:18.752Z,4.80
2018-11-25T13:16:46.857Z,4.80
2018-11-25T13:19:20.726Z,4.80
2018-11-25T13:21:48.839Z,4.70
2018-11-25T13:24:17.019Z,4.70
2018-11-25T13:26:45.122Z,4.60
2018-11-25T13:29:13.365Z,4.70
2018-11-25T13:31:41.625Z,4.60
2018-11-25T13:34:09.817Z,4.60
2018-11-25T13:36:38.094Z,4.60
2018-11-25T13:39:08.558Z,4.60
2018-11-25T13:41:36.938Z,4.60
2018-11-25T13:44:06.065Z,4.60
2018-11-25T13:46:34.244Z,4.60
2018-11-25T13:49:02.565Z,4.50
2018-11-25T13:51:30.761Z,4.50
2018-11-25T13:53:59.304Z,4.50
2018-11-25T13:56:27.810Z,4.50
2018-11-25T13:58:56.034Z,4.50
2018-11-25T14:01:24.191Z,4.50
2018-11-25T14:03:52.370Z,4.50
2018-11-25T14:06:20.483Z,4.60
2018-11-25T14:08:52.636Z,4.60
2018-11-25T14:11:20.773Z,4.60
2018-11-25T14:13:48.912Z,4.50
2018-11-25T14:16:18.996Z,4.50
2018-11-25T14:18:47.152Z,4.50
2018-11-25T14:21:15.755Z,4.50
2018-11-25T14:23:43.575Z,4.60
2018-11-25T14:26:15.405Z,4.60
2018-11-25T14:28:44.248Z,4.60
2018-11-25T14:31:12.377Z,4.60
2018-11-25T14:33:40.596Z,4.60
2018-11-25T14:36:08.717Z,4.60
2018-11-25T14:38:36.878Z,4.60
2018-11-25T14:41:05.133Z,4.60
2018-11-25T14:43:33.268Z,4.60
2018-11-25T14:46:01.376Z,4.70
2018-11-25T14:48:29.492Z,4.70
2018-11-25T14:50:57.594Z,4.70
2018-11-25T14:53:25.706Z,4.70
2018-11-25T14:55:53.892Z,4.70
2018-11-25T14:58:22.175Z,4.70
2018-11-25T15:00:50.524Z,4.70
2018-11-25T15:03:18.710Z,4.70
2018-11-25T15:05:48.105Z,4.70
2018-11-25T15:08:21.127Z,4.70
2018-11-25T15:10:49.324Z,4.70
2018-11-25T15:13:17.510Z,4.70
2018-11-25T15:15:45.578Z,4.70
2018-11-25T15:18:13.688Z,4.70
2018-11-25T15:20:41.897Z,4.70
2018-11-25T15:23:12.384Z,4.70
2018-11-25T15:25:42.637Z,4.70
2018-11-25T15:28:10.841Z,4.70
2018-11-25T15:30:38.947Z,4.70
2018-11-25T15:33:07.291Z,4.70
2018-11-25T15:35:35.406Z,4.70
2018-11-25T15:38:03.687Z,4.60
2018-11-25T15:40:33.145Z,4.60
2018-11-25T15:43:01.355Z,4.60
2018-11-25T15:45:29.502Z,4.60
2018-11-25T15:48:00.524Z,4.60
2018-11-25T15:50:29.389Z,4.60
2018-11-25T15:52:57.554Z,4.60
2018-11-25T15:55:25.726Z,4.50
2018-11-25T15:57:53.928Z,4.50
2018-11-25T16:00:23.147Z,4.50
2018-11-25T16:02:51.304Z,4.50
2018-11-25T16:05:28.726Z,4.50
2018-11-25T16:07:57.014Z,4.50
2018-11-25T16:10:25.376Z,4.50
2018-11-25T16:12:53.655Z,4.50
2018-11-25T16:15:23.289Z,4.50
2018-11-25T16:17:51.372Z,4.50
2018-11-25T16:20:21.959Z,4.50
2018-11-25T16:22:51.712Z,4.50
2018-11-25T16:25:38.839Z,4.50
2018-11-25T16:28:12.218Z,4.50
2018-11-25T16:30:40.368Z,4.50
2018-11-25T16:33:08.483Z,4.50
2018-11-25T16:35:36.589Z,4.50
2018-11-25T16:38:05.589Z,4.50
2018-11-25T16:40:33.754Z,4.40
2018-11-25T16:43:01.998Z,4.50
2018-11-25T16:45:30.134Z,4.50
2018-11-25T16:47:58.658Z,4.50
2018-11-25T16:50:26.852Z,4.50
2018-11-25T16:52:55.004Z,4.40
2018-11-25T16:55:23.343Z,4.40
2018-11-25T16:57:51.495Z,4.50
2018-11-25T17:00:19.940Z,4.50
2018-11-25T17:02:48.190Z,4.40
2018-11-25T17:05:23.078Z,4.40
2018-11-25T17:07:55.138Z,4.40
2018-11-25T17:10:23.384Z,4.40
2018-11-25T17:12:51.519Z,4.40
2018-11-25T17:15:21.910Z,4.40
2018-11-25T17:17:50.154Z,4.50
2018-11-25T17:20:18.289Z,4.50
2018-11-25T17:22:46.404Z,4.40
2018-11-25T17:25:14.594Z,4.50
2018-11-25T17:27:42.997Z,4.50
2018-11-25T17:30:12.642Z,4.50
2018-11-25T17:32:41.242Z,4.50
2018-11-25T17:35:15.144Z,4.50
2018-11-25T17:37:43.366Z,4.50
2018-11-25T17:40:11.594Z,4.50
2018-11-25T17:42:39.985Z,4.50
2018-11-25T17:45:10.499Z,4.50
2018-11-25T17:47:38.704Z,4.50
2018-11-25T17:50:13.119Z,4.50
2018-11-25T17:52:41.242Z,4.50
2018-11-25T17:55:10.800Z,4.50
2018-11-25T17:57:39.094Z,4.40
2018-11-25T18:00:13.076Z,4.50
2018-11-25T18:02:41.460Z,4.50
2018-11-25T18:05:09.937Z,4.40
2018-11-25T18:07:38.069Z,4.40
2018-11-25T18:10:09.746Z,4.40
2018-11-25T18:12:37.919Z,4.40
2018-11-25T18:15:15.861Z,4.30
2018-11-25T18:17:52.848Z,4.40
2018-11-25T18:20:21.519Z,4.30
2018-11-25T18:22:49.923Z,4.40
2018-11-25T18:25:18.079Z,4.30
2018-11-25T18:27:46.231Z,4.30
2018-11-25T18:30:15.975Z,4.30
2018-11-25T18:32:44.666Z,4.30
2018-11-25T18:35:12.914Z,4.30
2018-11-25T18:37:41.354Z,4.30
2018-11-25T18:40:11.504Z,4.30
2018-11-25T18:42:40.187Z,4.30
2018-11-25T18:45:11.605Z,4.30
2018-11-25T18:47:39.850Z,4.30
2018-11-25T18:50:10.979Z,4.30
2018-11-25T18:52:39.543Z,4.30
2018-11-25T18:55:06.477Z,4.30
2018-11-25T18:57:34.571Z,4.30
2018-11-25T19:00:03.425Z,4.30
2018-11-25T19:02:40.485Z,4.30
2018-11-25T19:05:08.788Z,4.30
2018-11-25T19:07:38.798Z,4.30
2018-11-25T19:10:10.581Z,4.30
2018-11-25T19:12:44.017Z,4.30
2018-11-25T19:15:08.927Z,4.30
2018-11-25T19:17:37.779Z,4.30
2018-11-25T19:20:13.261Z,4.30
2018-11-25T19:22:43.946Z,4.30
2018-11-25T19:25:14.640Z,4.30
2018-11-25T19:27:43.822Z,4.30
2018-11-25T19:30:13.951Z,4.40
2018-11-25T19:32:43.202Z,4.40
2018-11-25T19:35:14.384Z,4.40
2018-11-25T19:37:43.375Z,4.40
2018-11-25T19:40:16.427Z,4.40
2018-11-25T19:42:44.691Z,4.40
2018-11-25T19:45:14.556Z,4.50
2018-11-25T19:47:42.939Z,4.50
2018-11-25T19:50:13.571Z,4.50
2018-11-25T19:52:41.988Z,4.60
2018-11-25T19:55:10.162Z,4.60
2018-11-25T19:57:38.560Z,4.50
2018-11-25T20:00:14.450Z,4.50
2018-11-25T20:02:42.643Z,4.60
2018-11-25T20:05:12.259Z,4.60
2018-11-25T20:07:47.112Z,4.60
2018-11-25T20:10:19.501Z,4.60
2018-11-25T20:12:49.005Z,4.60
2018-11-25T20:15:17.336Z,4.60
2018-11-25T20:17:53.751Z,4.60
2018-11-25T20:20:15.977Z,4.60
2018-11-25T20:22:44.287Z,4.60
2018-11-25T20:25:13.275Z,4.60
2018-11-25T20:27:41.471Z,4.60
2018-11-25T20:30:11.367Z,4.60
2018-11-25T20:32:39.521Z,4.60
2018-11-25T20:35:07.663Z,4.60
2018-11-25T20:37:35.936Z,4.60
2018-11-25T20:40:04.161Z,4.60
2018-11-25T20:42:32.366Z,4.60
2018-11-25T20:45:00.530Z,4.60
2018-11-25T20:47:28.705Z,4.70
2018-11-25T20:49:56.974Z,4.70
2018-11-25T20:52:25.083Z,4.70
2018-11-25T20:54:53.349Z,4.70
2018-11-25T20:57:21.447Z,4.70
2018-11-25T20:59:49.648Z,4.80
2018-11-25T21:02:20.425Z,4.80
2018-11-25T21:04:46.037Z,4.80
2018-11-25T21:07:14.126Z,4.80
2018-11-25T21:09:42.631Z,4.80
2018-11-25T21:12:10.835Z,4.90
2018-11-25T21:14:39.050Z,4.90
2018-11-25T21:17:07.236Z,4.90
2018-11-25T21:19:35.422Z,4.90
2018-11-25T21:22:03.671Z,4.90
2018-11-25T21:24:31.752Z,4.90
2018-11-25T21:26:59.901Z,4.90
2018-11-25T21:29:27.985Z,4.90
2018-11-25T21:31:56.190Z,5.00
2018-11-25T21:34:24.355Z,5.00
2018-11-25T21:36:52.695Z,5.00
2018-11-25T21:39:20.829Z,5.00
2018-11-25T21:41:49.141Z,4.90
2018-11-25T21:44:17.289Z,4.90
2018-11-25T21:46:45.422Z,4.90
2018-11-25T21:49:20.316Z,4.90
2018-11-25T21:51:48.537Z,4.90
2018-11-25T21:54:16.737Z,5.00
2018-11-25T21:56:44.949Z,5.00
2018-11-25T21:59:13.129Z,5.00
2018-11-25T22:01:41.387Z,4.90
2018-11-25T22:04:09.460Z,4.90
2018-11-25T22:06:37.751Z,5.00
2018-11-25T22:09:08.775Z,5.00
2018-11-25T22:11:37.116Z,5.00
2018-11-25T22:14:05.593Z,5.00
2018-11-25T22:16:33.805Z,5.00
2018-11-25T22:19:02.001Z,5.00
2018-11-25T22:21:30.496Z,5.10
2018-11-25T22:23:58.653Z,5.10
2018-11-25T22:26:26.982Z,5.10
2018-11-25T22:28:55.136Z,5.10
2018-11-25T22:31:23.261Z,5.10
2018-11-25T22:33:51.541Z,5.10
2018-11-25T22:36:19.728Z,5.10
2018-11-25T22:38:47.924Z,5.10
2018-11-25T22:41:16.045Z,5.10
2018-11-25T22:43:44.251Z,5.10
2018-11-25T22:46:12.381Z,5.10
2018-11-25T22:48:40.525Z,5.10
2018-11-25T22:51:08.656Z,5.10
2018-11-25T22:53:36.801Z,5.10
2018-11-25T22:56:05.240Z,5.10
2018-11-25T22:58:33.413Z,5.10
2018-11-25T23:01:01.588Z,5.10
2018-11-25T23:03:29.858Z,5.20
2018-11-25T23:06:37.351Z,5.20
2018-11-25T23:09:07.263Z,5.20
2018-11-25T23:11:35.452Z,5.20
2018-11-25T23:14:03.892Z,5.20
2018-11-25T23:16:32.108Z,5.20
2018-11-25T23:19:00.325Z,5.20
2018-11-25T23:21:28.439Z,5.20
2018-11-25T23:23:56.633Z,5.20
2018-11-25T23:26:24.788Z,5.20
2018-11-25T23:28:52.925Z,5.20
2018-11-25T23:31:21.045Z,5.20
2018-11-25T23:33:49.222Z,5.20
2018-11-25T23:36:17.377Z,5.20
2018-11-25T23:38:45.576Z,5.20
2018-11-25T23:41:13.877Z,5.20
2018-11-25T23:43:42.588Z,5.20
2018-11-25T23:46:11.036Z,5.20
2018-11-25T23:48:39.889Z,5.20
2018-11-25T23:51:08.108Z,5.20
2018-11-25T23:53:36.443Z,5.30
2018-11-25T23:56:04.871Z,5.20
2018-11-25T23:58:33.681Z,5.20
